createdAt,value
2023-02-02T00:01:30.924Z,87.28
2023-02-02T00:03:59.898Z,87.02
2023-02-02T00:06:32.047Z,87.00
2023-02-02T00:09:01.592Z,86.77
2023-02-02T00:11:30.209Z,86.41
2023-02-02T00:13:58.469Z,86.25
2023-02-02T00:16:43.752Z,86.22
2023-02-02T00:19:14.955Z,86.36
2023-02-02T00:21:46.171Z,86.42
2023-02-02T00:24:18.190Z,86.39
2023-02-02T00:26:48.729Z,86.05
2023-02-02T00:29:21.383Z,85.86
2023-02-02T00:31:50.218Z,85.54
2023-02-02T00:34:19.850Z,85.53
2023-02-02T00:36:50.198Z,85.32
2023-02-02T00:39:20.671Z,85.28
2023-02-02T00:41:49.152Z,85.17
2023-02-02T00:44:34.632Z,85.15
2023-02-02T00:47:02.931Z,84.84
2023-02-02T00:49:31.359Z,84.98
2023-02-02T00:52:11.237Z,84.86
2023-02-02T00:54:39.259Z,84.89
2023-02-02T00:57:09.054Z,85.13
2023-02-02T00:59:38.340Z,85.30
2023-02-02T01:02:06.649Z,85.48
2023-02-02T01:04:34.797Z,85.57
2023-02-02T01:07:03.100Z,85.62
2023-02-02T01:09:32.634Z,85.67
2023-02-02T01:12:02.352Z,85.58
2023-02-02T01:14:30.477Z,85.40
2023-02-02T01:16:58.706Z,85.46
2023-02-02T01:19:27.563Z,85.34
2023-02-02T01:21:55.635Z,85.52
2023-02-02T01:24:26.882Z,85.49
2023-02-02T01:26:56.309Z,85.81
2023-02-02T01:29:25.534Z,85.76
2023-02-02T01:31:54.070Z,85.92
2023-02-02T01:34:22.302Z,86.16
2023-02-02T01:36:50.333Z,86.07
2023-02-02T01:39:18.425Z,86.25
2023-02-02T01:41:47.673Z,86.52
2023-02-02T01:45:07.598Z,86.86
2023-02-02T01:47:39.600Z,86.83
2023-02-02T01:50:09.368Z,86.83
2023-02-02T01:52:38.179Z,86.85
2023-02-02T01:55:09.282Z,86.83
2023-02-02T01:57:44.824Z,86.98
2023-02-02T02:00:15.661Z,86.89
2023-02-02T02:02:48.040Z,86.91
2023-02-02T02:05:18.153Z,86.85
2023-02-02T02:07:48.231Z,86.48
2023-02-02T02:10:17.895Z,86.45
2023-02-02T02:12:46.150Z,86.61
2023-02-02T02:15:37.335Z,86.51
2023-02-02T02:18:13.265Z,86.66
2023-02-02T02:21:22.359Z,86.80
2023-02-02T02:24:56.640Z,86.65
2023-02-02T02:28:07.397Z,86.75
2023-02-02T02:30:43.068Z,86.31
2023-02-02T02:33:18.091Z,86.32
2023-02-02T02:35:53.279Z,86.66
2023-02-02T02:38:26.086Z,86.67
2023-02-02T02:40:58.425Z,86.93
2023-02-02T02:43:33.516Z,87.08
2023-02-02T02:46:03.021Z,87.24
2023-02-02T02:48:32.906Z,87.28
2023-02-02T02:51:08.614Z,87.22
2023-02-02T02:53:38.602Z,87.18
2023-02-02T02:56:14.132Z,87.24
2023-02-02T02:58:50.132Z,87.53
2023-02-02T03:01:22.600Z,87.81
2023-02-02T03:04:01.841Z,88.12
2023-02-02T03:06:36.363Z,88.47
2023-02-02T03:09:06.517Z,88.78
2023-02-02T03:11:36.110Z,89.14
2023-02-02T03:14:07.125Z,89.46
2023-02-02T03:16:36.549Z,89.83
2023-02-02T03:19:07.050Z,90.08
2023-02-02T03:21:35.684Z,90.27
2023-02-02T03:24:05.546Z,90.37
2023-02-02T03:26:33.666Z,90.60
2023-02-02T03:29:03.015Z,90.67
2023-02-02T03:31:31.351Z,90.82
2023-02-02T03:34:00.449Z,90.95
2023-02-02T03:36:30.178Z,91.14
2023-02-02T03:38:58.440Z,91.28
2023-02-02T03:41:26.783Z,91.46
2023-02-02T03:43:59.013Z,91.72
2023-02-02T03:46:27.898Z,91.81
2023-02-02T03:48:57.138Z,91.95
2023-02-02T03:51:28.302Z,91.98
2023-02-02T03:53:57.860Z,91.99
2023-02-02T03:56:26.355Z,91.92
2023-02-02T03:58:54.575Z,91.90
2023-02-02T04:01:29.957Z,91.75
2023-02-02T04:03:58.446Z,91.74
2023-02-02T04:06:27.437Z,91.52
2023-02-02T04:08:56.826Z,91.39
2023-02-02T04:11:24.957Z,91.26
2023-02-02T04:13:54.494Z,91.17
2023-02-02T04:16:22.652Z,91.15
2023-02-02T04:18:51.026Z,91.15
2023-02-02T04:21:19.505Z,91.11
2023-02-02T04:23:48.323Z,91.13
2023-02-02T04:26:21.623Z,91.04
2023-02-02T04:28:49.809Z,90.97
2023-02-02T04:31:20.955Z,90.94
2023-02-02T04:33:50.136Z,90.83
2023-02-02T04:36:20.760Z,90.77
2023-02-02T04:38:52.616Z,90.70
2023-02-02T04:41:22.783Z,90.59
2023-02-02T04:43:50.828Z,90.53
2023-02-02T04:46:18.870Z,90.40
2023-02-02T04:48:49.492Z,90.25
2023-02-02T04:51:18.897Z,90.16
2023-02-02T04:53:47.295Z,90.08
2023-02-02T04:56:17.041Z,89.93
2023-02-02T04:58:47.055Z,89.98
2023-02-02T05:01:19.147Z,90.03
2023-02-02T05:03:47.715Z,89.96
2023-02-02T05:06:16.365Z,90.08
2023-02-02T05:08:44.848Z,90.18
2023-02-02T05:11:15.358Z,90.25
2023-02-02T05:13:48.147Z,90.33
2023-02-02T05:16:17.610Z,90.42
2023-02-02T05:18:49.804Z,90.46
2023-02-02T05:21:17.957Z,90.47
2023-02-02T05:23:48.657Z,90.45
2023-02-02T05:26:18.612Z,90.50
2023-02-02T05:28:48.883Z,90.42
2023-02-02T05:31:17.300Z,90.41
2023-02-02T05:33:45.811Z,90.44
2023-02-02T05:36:13.960Z,90.52
2023-02-02T05:38:41.922Z,90.62
2023-02-02T05:41:09.947Z,90.67
2023-02-02T05:43:38.391Z,90.70
2023-02-02T05:46:08.116Z,90.74
2023-02-02T05:48:36.197Z,90.70
2023-02-02T05:51:09.572Z,90.71
2023-02-02T05:53:37.870Z,90.59
2023-02-02T05:56:06.696Z,90.53
2023-02-02T05:58:34.801Z,90.47
2023-02-02T06:01:03.147Z,90.35
2023-02-02T06:03:37.374Z,91.67
2023-02-02T06:06:07.058Z,92.47
2023-02-02T06:08:38.169Z,92.11
2023-02-02T06:11:10.571Z,91.67
2023-02-02T06:13:39.099Z,91.07
2023-02-02T06:16:09.832Z,90.88
2023-02-02T06:18:39.284Z,89.78
2023-02-02T06:21:11.441Z,89.77
2023-02-02T06:23:45.737Z,89.56
2023-02-02T06:26:14.212Z,88.96
2023-02-02T06:28:42.645Z,88.83
2023-02-02T06:31:14.619Z,88.72
2023-02-02T06:33:44.225Z,88.08
2023-02-02T06:36:12.714Z,88.29
2023-02-02T06:38:40.773Z,87.87
2023-02-02T06:41:09.044Z,87.76
2023-02-02T06:43:37.581Z,86.51
2023-02-02T06:46:05.978Z,86.35
2023-02-02T06:48:34.705Z,86.64
2023-02-02T06:51:05.560Z,86.99
2023-02-02T06:53:33.599Z,87.19
2023-02-02T06:56:03.228Z,87.38
2023-02-02T06:58:32.578Z,87.73
2023-02-02T07:01:05.582Z,88.01
2023-02-02T07:03:34.529Z,88.22
2023-02-02T07:06:13.701Z,88.50
2023-02-02T07:08:42.382Z,88.71
2023-02-02T07:11:16.172Z,88.79
2023-02-02T07:13:46.424Z,88.90
2023-02-02T07:16:16.756Z,89.10
2023-02-02T07:18:45.028Z,89.18
2023-02-02T07:21:19.686Z,89.29
2023-02-02T07:23:48.440Z,89.44
2023-02-02T07:26:18.311Z,89.71
2023-02-02T07:28:49.268Z,89.69
2023-02-02T07:31:19.365Z,89.74
2023-02-02T07:33:50.691Z,89.79
2023-02-02T07:36:21.234Z,89.92
2023-02-02T07:38:54.071Z,90.02
2023-02-02T07:41:22.936Z,90.02
2023-02-02T07:43:53.138Z,90.17
2023-02-02T07:46:21.780Z,90.27
2023-02-02T07:48:50.038Z,90.30
2023-02-02T07:51:20.014Z,90.31
2023-02-02T07:53:51.097Z,90.15
2023-02-02T07:56:20.847Z,89.90
2023-02-02T07:58:52.771Z,89.81
2023-02-02T08:01:23.043Z,89.71
2023-02-02T08:03:51.655Z,89.63
2023-02-02T08:06:22.921Z,89.38
2023-02-02T08:08:51.736Z,89.30
2023-02-02T08:11:21.844Z,89.11
2023-02-02T08:13:50.851Z,89.08
2023-02-02T08:16:18.942Z,89.22
2023-02-02T08:18:47.189Z,89.27
2023-02-02T08:21:16.326Z,89.12
2023-02-02T08:23:46.644Z,89.17
2023-02-02T08:26:17.427Z,89.17
2023-02-02T08:28:47.345Z,89.10
2023-02-02T08:31:18.329Z,88.89
2023-02-02T08:33:46.855Z,88.81
2023-02-02T08:36:15.904Z,88.68
2023-02-02T08:38:45.890Z,88.67
2023-02-02T08:41:17.265Z,88.45
2023-02-02T08:43:45.971Z,88.42
2023-02-02T08:46:16.616Z,88.19
2023-02-02T08:48:45.312Z,88.30
2023-02-02T08:51:15.231Z,87.92
2023-02-02T08:53:47.117Z,87.17
2023-02-02T08:56:18.452Z,86.96
2023-02-02T08:58:47.047Z,86.45
2023-02-02T09:01:17.138Z,85.67
2023-02-02T09:03:45.442Z,85.19
2023-02-02T09:06:16.278Z,84.52
2023-02-02T09:08:45.969Z,84.54
2023-02-02T09:11:16.737Z,84.21
2023-02-02T09:13:46.818Z,84.48
2023-02-02T09:16:16.303Z,83.35
2023-02-02T09:18:45.675Z,81.70
2023-02-02T09:21:15.925Z,81.18
2023-02-02T09:23:47.777Z,81.72
2023-02-02T09:26:18.587Z,81.61
2023-02-02T09:28:47.980Z,81.57
2023-02-02T09:31:16.372Z,81.77
2023-02-02T09:33:45.241Z,82.26
2023-02-02T09:36:15.235Z,82.13
2023-02-02T09:38:44.152Z,82.81
2023-02-02T09:41:29.416Z,82.36
2023-02-02T09:44:04.802Z,82.42
2023-02-02T09:46:44.029Z,82.27
2023-02-02T09:49:14.578Z,81.70
2023-02-02T09:51:48.594Z,81.28
2023-02-02T09:54:19.389Z,80.47
2023-02-02T09:56:51.257Z,80.43
2023-02-02T09:59:24.180Z,80.22
2023-02-02T10:01:56.201Z,79.98
2023-02-02T10:04:28.036Z,78.93
2023-02-02T10:06:59.482Z,77.57
2023-02-02T10:09:32.956Z,77.16
2023-02-02T10:12:06.483Z,77.47
2023-02-02T10:14:36.855Z,77.12
2023-02-02T10:17:13.157Z,76.79
2023-02-02T10:19:42.316Z,77.13
2023-02-02T10:22:13.417Z,77.10
2023-02-02T10:24:41.562Z,78.49
2023-02-02T10:27:17.685Z,77.99
2023-02-02T10:29:58.237Z,77.72
2023-02-02T10:32:31.040Z,77.46
2023-02-02T10:35:14.738Z,77.17
2023-02-02T10:37:48.435Z,77.84
2023-02-02T10:40:21.709Z,78.46
2023-02-02T10:43:25.315Z,80.77
2023-02-02T10:45:55.352Z,81.67
2023-02-02T10:48:29.074Z,81.91
2023-02-02T10:51:00.771Z,82.14
2023-02-02T10:53:31.346Z,82.09
2023-02-02T10:56:02.913Z,82.20
2023-02-02T10:58:37.312Z,82.53
2023-02-02T11:01:07.933Z,82.31
2023-02-02T11:03:36.113Z,82.43
2023-02-02T11:06:23.668Z,82.37
2023-02-02T11:08:56.769Z,82.62
2023-02-02T11:11:27.176Z,82.59
2023-02-02T11:14:00.956Z,81.69
2023-02-02T11:16:42.255Z,79.93
2023-02-02T11:19:25.279Z,78.91
2023-02-02T11:21:56.916Z,78.87
2023-02-02T11:24:26.301Z,79.31
2023-02-02T11:26:56.936Z,79.04
2023-02-02T11:29:29.813Z,79.76
2023-02-02T11:31:58.314Z,79.06
2023-02-02T11:34:29.624Z,79.01
2023-02-02T11:37:03.341Z,78.66
2023-02-02T11:39:31.634Z,78.90
2023-02-02T11:42:02.399Z,79.57
2023-02-02T11:44:34.200Z,80.14
2023-02-02T11:47:04.911Z,79.63
2023-02-02T11:49:35.118Z,79.04
2023-02-02T11:52:06.191Z,78.20
2023-02-02T11:54:38.753Z,78.06
2023-02-02T11:57:09.650Z,77.56
2023-02-02T11:59:40.849Z,77.35
2023-02-02T12:02:22.036Z,78.82
2023-02-02T12:04:52.397Z,77.63
2023-02-02T12:07:24.921Z,77.22
2023-02-02T12:09:53.174Z,77.70
2023-02-02T12:12:35.511Z,79.21
2023-02-02T12:15:12.962Z,79.93
2023-02-02T12:17:44.429Z,80.81
2023-02-02T12:20:19.799Z,82.00
2023-02-02T12:23:07.668Z,82.08
2023-02-02T12:25:56.101Z,81.43
2023-02-02T12:28:34.468Z,82.53
2023-02-02T12:31:10.659Z,83.06
2023-02-02T12:33:41.980Z,83.04
2023-02-02T12:36:24.757Z,83.45
2023-02-02T12:39:08.775Z,83.24
2023-02-02T12:41:47.095Z,83.95
2023-02-02T12:44:21.541Z,84.09
2023-02-02T12:47:01.361Z,84.39
2023-02-02T12:49:47.926Z,84.99
2023-02-02T12:52:22.900Z,84.97
2023-02-02T12:55:05.354Z,84.96
2023-02-02T12:57:46.777Z,85.17
2023-02-02T13:00:28.511Z,84.01
2023-02-02T13:03:06.308Z,83.71
2023-02-02T13:05:43.683Z,82.55
2023-02-02T13:08:13.386Z,81.92
2023-02-02T13:10:44.634Z,81.71
2023-02-02T13:13:15.359Z,82.15
2023-02-02T13:15:45.294Z,82.40
2023-02-02T13:18:16.447Z,82.62
2023-02-02T13:20:46.774Z,82.56
2023-02-02T13:23:18.682Z,82.55
2023-02-02T13:25:50.487Z,82.92
2023-02-02T13:28:26.834Z,83.37
2023-02-02T13:30:58.857Z,84.03
2023-02-02T13:33:31.349Z,83.43
2023-02-02T13:36:00.871Z,83.13
2023-02-02T13:38:31.398Z,82.87
2023-02-02T13:41:01.678Z,82.96
2023-02-02T13:43:38.579Z,82.97
2023-02-02T13:46:13.987Z,83.32
2023-02-02T13:48:52.393Z,83.12
2023-02-02T13:51:40.923Z,82.71
2023-02-02T13:54:20.443Z,82.57
2023-02-02T13:56:55.562Z,82.48
2023-02-02T13:59:44.649Z,82.15
2023-02-02T14:02:23.900Z,81.63
2023-02-02T14:04:59.124Z,80.94
2023-02-02T14:07:41.683Z,80.85
2023-02-02T14:10:23.626Z,80.13
2023-02-02T14:12:52.564Z,79.61
2023-02-02T14:15:21.076Z,79.55
2023-02-02T14:17:56.517Z,79.69
2023-02-02T14:20:47.597Z,79.54
2023-02-02T14:23:52.137Z,79.13
2023-02-02T14:26:22.734Z,79.56
2023-02-02T14:28:52.033Z,79.52
2023-02-02T14:31:44.959Z,79.56
2023-02-02T14:34:28.731Z,79.98
2023-02-02T14:37:21.179Z,79.99
2023-02-02T14:39:56.367Z,79.30
2023-02-02T14:42:52.123Z,79.37
2023-02-02T14:45:32.152Z,79.70
2023-02-02T14:48:04.110Z,79.90
2023-02-02T14:50:40.896Z,80.36
2023-02-02T14:53:18.900Z,80.59
2023-02-02T14:55:57.377Z,80.40
2023-02-02T14:58:29.087Z,80.75
2023-02-02T15:01:00.904Z,80.94
2023-02-02T15:03:49.070Z,81.47
2023-02-02T15:06:30.474Z,81.55
2023-02-02T15:09:29.254Z,82.63
2023-02-02T15:12:19.746Z,82.73
2023-02-02T15:14:51.804Z,82.99
2023-02-02T15:17:25.377Z,83.21
2023-02-02T15:19:56.805Z,83.32
2023-02-02T15:22:31.771Z,83.54
2023-02-02T15:25:07.872Z,83.52
2023-02-02T15:27:45.117Z,83.53
2023-02-02T15:30:24.135Z,83.43
2023-02-02T15:32:53.257Z,83.42
2023-02-02T15:35:25.176Z,83.00
2023-02-02T15:37:56.956Z,82.73
2023-02-02T15:40:28.222Z,82.47
2023-02-02T15:43:00.336Z,82.52
2023-02-02T15:45:43.557Z,82.82
2023-02-02T15:48:26.979Z,82.85
2023-02-02T15:50:56.913Z,82.91
2023-02-02T15:53:30.898Z,83.34
2023-02-02T15:56:02.895Z,83.59
2023-02-02T15:58:46.276Z,83.80
2023-02-02T16:01:23.822Z,83.99
2023-02-02T16:04:01.372Z,84.22
2023-02-02T16:06:30.352Z,84.47
2023-02-02T16:08:58.960Z,84.55
2023-02-02T16:11:28.360Z,84.96
2023-02-02T16:14:01.333Z,85.34
2023-02-02T16:16:33.385Z,85.78
2023-02-02T16:19:15.694Z,85.92
2023-02-02T16:21:48.416Z,85.99
2023-02-02T16:24:47.390Z,86.10
2023-02-02T16:27:22.796Z,86.25
2023-02-02T16:29:51.892Z,86.32
2023-02-02T16:32:31.195Z,86.52
2023-02-02T16:35:03.358Z,86.63
2023-02-02T16:37:36.395Z,86.67
2023-02-02T16:40:22.911Z,86.93
2023-02-02T16:43:06.424Z,87.04
2023-02-02T16:45:36.508Z,87.24
2023-02-02T16:48:28.532Z,87.23
2023-02-02T16:51:09.232Z,87.16
2023-02-02T16:53:37.966Z,87.10
2023-02-02T16:56:07.461Z,86.88
2023-02-02T16:58:40.840Z,86.84
2023-02-02T17:01:16.091Z,86.81
2023-02-02T17:03:51.402Z,87.13
2023-02-02T17:06:33.181Z,87.24
2023-02-02T17:09:21.330Z,87.20
2023-02-02T17:11:57.746Z,87.20
2023-02-02T17:14:32.817Z,87.57
2023-02-02T17:17:05.010Z,87.77
2023-02-02T17:19:33.253Z,88.05
2023-02-02T17:22:06.042Z,88.15
2023-02-02T17:24:34.452Z,88.23
2023-02-02T17:27:03.689Z,88.23
2023-02-02T17:29:33.047Z,88.72
2023-02-02T17:32:02.564Z,89.01
2023-02-02T17:34:31.163Z,89.14
2023-02-02T17:37:00.216Z,89.21
2023-02-02T17:39:28.458Z,89.06
2023-02-02T17:41:56.920Z,89.05
2023-02-02T17:44:25.185Z,89.08
2023-02-02T17:46:54.454Z,89.21
2023-02-02T17:49:22.916Z,89.29
2023-02-02T17:51:51.262Z,89.56
2023-02-02T17:54:20.909Z,89.77
2023-02-02T17:56:49.098Z,89.76
2023-02-02T17:59:17.570Z,89.76
2023-02-02T18:01:45.733Z,89.57
2023-02-02T18:04:16.619Z,90.12
2023-02-02T18:06:45.512Z,90.17
2023-02-02T18:09:14.089Z,90.41
2023-02-02T18:11:42.706Z,90.68
2023-02-02T18:14:12.575Z,90.75
2023-02-02T18:16:40.676Z,90.80
2023-02-02T18:19:08.926Z,90.58
2023-02-02T18:21:38.522Z,90.35
2023-02-02T18:24:06.673Z,90.44
2023-02-02T18:26:35.669Z,91.03
2023-02-02T18:29:04.094Z,91.66
2023-02-02T18:31:32.450Z,92.03
2023-02-02T18:34:00.789Z,92.07
2023-02-02T18:36:28.693Z,91.94
2023-02-02T18:38:58.487Z,92.00
2023-02-02T18:41:26.599Z,92.14
2023-02-02T18:43:55.366Z,92.20
2023-02-02T18:46:23.916Z,92.25
2023-02-02T18:48:53.189Z,92.23
2023-02-02T18:51:22.273Z,92.25
2023-02-02T18:53:50.704Z,92.31
2023-02-02T18:56:22.830Z,92.12
2023-02-02T18:58:50.772Z,91.87
2023-02-02T19:01:23.377Z,91.82
2023-02-02T19:03:53.148Z,92.00
2023-02-02T19:06:39.186Z,92.05
2023-02-02T19:09:08.111Z,92.10
2023-02-02T19:11:39.653Z,92.32
2023-02-02T19:14:14.484Z,92.34
2023-02-02T19:16:43.524Z,92.45
2023-02-02T19:19:18.302Z,92.59
2023-02-02T19:21:46.335Z,92.84
2023-02-02T19:24:15.199Z,92.88
2023-02-02T19:26:51.644Z,93.08
2023-02-02T19:29:23.027Z,93.30
2023-02-02T19:31:55.217Z,93.22
2023-02-02T19:34:23.704Z,93.15
2023-02-02T19:36:53.312Z,93.20
2023-02-02T19:39:24.017Z,93.40
2023-02-02T19:41:55.533Z,93.64
2023-02-02T19:44:24.263Z,93.89
2023-02-02T19:46:53.908Z,94.00
2023-02-02T19:49:26.404Z,94.06
2023-02-02T19:51:55.946Z,94.26
2023-02-02T19:54:33.220Z,94.25
2023-02-02T19:57:05.796Z,94.37
2023-02-02T19:59:37.101Z,94.45
2023-02-02T20:02:27.097Z,94.70
2023-02-02T20:05:01.949Z,94.78
2023-02-02T20:07:30.996Z,94.78
2023-02-02T20:10:02.773Z,94.88
2023-02-02T20:12:32.841Z,94.94
2023-02-02T20:15:02.323Z,94.95
2023-02-02T20:17:34.611Z,94.90
2023-02-02T20:20:02.854Z,94.85
2023-02-02T20:22:33.518Z,94.81
2023-02-02T20:25:04.088Z,94.83
2023-02-02T20:27:34.511Z,94.83
2023-02-02T20:30:18.409Z,94.76
2023-02-02T20:32:46.961Z,94.74
2023-02-02T20:35:22.307Z,94.82
2023-02-02T20:37:56.037Z,94.79
2023-02-02T20:40:26.700Z,94.73
2023-02-02T20:42:58.737Z,94.66
2023-02-02T20:45:27.824Z,94.59
2023-02-02T20:47:55.901Z,94.55
2023-02-02T20:50:25.507Z,94.46
2023-02-02T20:52:55.725Z,94.40
2023-02-02T20:55:23.894Z,94.41
2023-02-02T20:57:53.275Z,94.44
2023-02-02T21:00:27.813Z,94.38
2023-02-02T21:02:56.354Z,94.31
2023-02-02T21:05:29.081Z,94.25
2023-02-02T21:07:58.161Z,94.22
2023-02-02T21:10:28.210Z,94.25
2023-02-02T21:12:56.630Z,94.30
2023-02-02T21:15:29.150Z,94.32
2023-02-02T21:17:58.287Z,94.39
2023-02-02T21:20:27.101Z,94.41
2023-02-02T21:22:56.158Z,94.42
2023-02-02T21:25:26.524Z,94.34
2023-02-02T21:27:55.328Z,94.35
2023-02-02T21:30:23.751Z,94.31
2023-02-02T21:32:55.349Z,94.40
2023-02-02T21:35:24.096Z,94.40
2023-02-02T21:37:56.954Z,94.39
2023-02-02T21:40:29.754Z,94.37
2023-02-02T21:43:00.389Z,94.29
2023-02-02T21:45:34.275Z,94.16
2023-02-02T21:48:06.688Z,94.16
2023-02-02T21:50:37.828Z,94.16
2023-02-02T21:53:18.251Z,94.11
2023-02-02T21:55:47.425Z,94.12
2023-02-02T21:58:20.568Z,94.10
2023-02-02T22:00:49.314Z,94.17
2023-02-02T22:03:31.051Z,94.19
2023-02-02T22:06:04.336Z,94.21
2023-02-02T22:08:34.674Z,94.22
2023-02-02T22:11:03.023Z,94.26
2023-02-02T22:13:35.331Z,94.26
2023-02-02T22:16:03.680Z,94.27
2023-02-02T22:18:33.701Z,94.22
2023-02-02T22:21:01.749Z,94.21
2023-02-02T22:23:29.899Z,94.14
2023-02-02T22:25:59.367Z,94.12
2023-02-02T22:28:29.515Z,94.13
2023-02-02T22:30:58.581Z,94.12
2023-02-02T22:33:26.987Z,94.07
2023-02-02T22:35:57.773Z,94.04
2023-02-02T22:38:27.744Z,94.08
2023-02-02T22:40:55.908Z,94.04
2023-02-02T22:43:24.747Z,94.05
2023-02-02T22:45:53.213Z,94.02
2023-02-02T22:48:22.587Z,94.01
2023-02-02T22:50:50.600Z,93.99
2023-02-02T22:53:20.000Z,93.98
2023-02-02T22:55:48.349Z,94.01
2023-02-02T22:58:17.578Z,94.03
2023-02-02T23:00:46.152Z,94.05
2023-02-02T23:03:14.144Z,94.14
2023-02-02T23:05:42.146Z,94.15
2023-02-02T23:08:10.169Z,94.15
2023-02-02T23:10:40.358Z,94.18
2023-02-02T23:13:08.650Z,94.20
2023-02-02T23:15:37.034Z,94.23
2023-02-02T23:18:05.747Z,94.20
2023-02-02T23:20:34.026Z,94.19
2023-02-02T23:23:02.064Z,94.19
2023-02-02T23:25:30.241Z,94.14
2023-02-02T23:27:59.579Z,94.17
2023-02-02T23:30:27.840Z,94.17
2023-02-02T23:32:56.860Z,94.13
2023-02-02T23:35:25.013Z,94.12
2023-02-02T23:37:53.078Z,94.09
2023-02-02T23:40:21.663Z,94.12
2023-02-02T23:42:51.364Z,94.15
2023-02-02T23:45:20.884Z,94.18
2023-02-02T23:47:49.099Z,94.19
2023-02-02T23:50:17.201Z,94.23
2023-02-02T23:52:45.273Z,94.34
2023-02-02T23:55:13.487Z,94.35
2023-02-02T23:57:41.687Z,94.40
